Time;durP1;ratioP1;P1;durP2;ratioP2;P2;SDS_P1;SDS_P2;PMS_P1;PMS_P2;Temp;Humidity;BMP_temperature;BMP_pressure;BME280_temperature;BME280_humidity;BME280_pressure;Samples;Min_cycle;Max_cycle;Signal;HPM_P1;HPM_P2
2023/10/09 00:03:06;;;;;;;10.25;7.65;;;18.80;61.90;;;;;;5029122;28;20196;-33
2023/10/09 00:08:16;;;;;;;11.13;7.00;;;18.70;62.00;;;;;;5026746;28;20209;-33
2023/10/09 00:10:49;;;;;;;14.10;6.90;;;18.70;62.00;;;;;;5011420;28;20194;-33
2023/10/09 00:13:16;;;;;;;12.43;7.72;;;18.70;62.10;;;;;;5008449;28;20691;-33
2023/10/09 00:15:43;;;;;;;12.70;7.93;;;18.70;62.10;;;;;;5024555;28;20683;-33
2023/10/09 00:18:12;;;;;;;10.40;7.60;;;18.70;62.10;;;;;;5019004;28;20633;-33
2023/10/09 00:20:42;;;;;;;12.90;7.93;;;18.70;62.10;;;;;;5016310;28;20208;-33
2023/10/09 00:23:15;;;;;;;11.45;7.57;;;18.60;62.10;;;;;;5006343;28;20213;-33
2023/10/09 00:26:16;;;;;;;11.33;7.97;;;18.60;62.10;;;;;;5004717;28;20304;-33
2023/10/09 00:28:44;;;;;;;9.77;7.37;;;18.60;62.30;;;;;;5016470;28;20790;-33
2023/10/09 00:31:15;;;;;;;10.10;7.68;;;18.60;62.20;;;;;;5007588;28;20263;-33
2023/10/09 00:33:43;;;;;;;12.65;8.02;;;18.60;62.30;;;;;;5019555;28;20304;-33
2023/10/09 00:36:14;;;;;;;13.15;7.75;;;18.50;62.20;;;;;;5025496;28;20215;-33
2023/10/09 00:38:45;;;;;;;11.60;7.85;;;18.50;62.30;;;;;;5009451;28;20697;-32
2023/10/09 00:41:24;;;;;;;10.98;7.78;;;18.50;62.40;;;;;;5022204;28;20264;-33
2023/10/09 00:43:55;;;;;;;12.13;7.82;;;18.50;62.50;;;;;;5005896;28;20701;-30
2023/10/09 00:49:02;;;;;;;13.35;8.10;;;18.50;62.50;;;;;;5022061;28;20205;-33
2023/10/09 00:51:37;;;;;;;12.65;7.32;;;18.50;62.60;;;;;;5008626;28;20229;-30
2023/10/09 00:54:08;;;;;;;11.25;7.28;;;18.50;62.50;;;;;;5017880;28;20304;-29
2023/10/09 00:56:43;;;;;;;10.68;6.90;;;18.50;62.50;;;;;;5008006;28;20631;-30
2023/10/09 00:59:16;;;;;;;13.55;7.50;;;18.50;62.60;;;;;;5012530;28;20204;-30
2023/10/09 01:02:05;;;;;;;10.30;6.88;;;18.50;62.70;;;;;;5009728;28;20584;-30
2023/10/09 01:04:37;;;;;;;11.98;7.65;;;18.50;62.60;;;;;;5014388;28;20243;-30
2023/10/09 01:07:25;;;;;;;11.85;7.95;;;18.50;62.70;;;;;;5006765;28;20253;-30
2023/10/09 01:09:55;;;;;;;11.90;7.75;;;18.50;62.70;;;;;;5014635;28;20330;-30
2023/10/09 01:12:27;;;;;;;11.35;7.07;;;18.50;62.70;;;;;;5015688;28;20234;-30
2023/10/09 01:14:59;;;;;;;12.45;7.57;;;18.50;62.80;;;;;;5010371;28;20303;-30
2023/10/09 01:17:35;;;;;;;11.27;7.35;;;18.50;62.80;;;;;;5006623;28;20209;-30
2023/10/09 01:20:05;;;;;;;13.07;7.35;;;18.50;62.80;;;;;;5016222;28;20458;-30
2023/10/09 01:22:37;;;;;;;12.82;7.05;;;18.50;62.80;;;;;;5033020;28;20717;-30
2023/10/09 01:25:05;;;;;;;12.65;7.40;;;18.50;62.90;;;;;;5023557;28;20209;-32
2023/10/09 01:27:34;;;;;;;11.23;7.65;;;18.50;62.90;;;;;;5020488;28;20310;-33
2023/10/09 01:30:01;;;;;;;12.68;7.40;;;18.50;62.90;;;;;;5013172;28;20240;-32
2023/10/09 01:32:29;;;;;;;14.00;7.70;;;18.50;62.90;;;;;;5023501;28;20192;-33
2023/10/09 01:34:59;;;;;;;12.88;7.97;;;18.50;62.90;;;;;;4988492;28;20329;-33
2023/10/09 01:37:29;;;;;;;12.63;7.97;;;18.50;63.00;;;;;;5009943;28;20208;-32
2023/10/09 01:40:15;;;;;;;9.65;6.65;;;18.50;63.00;;;;;;5022815;28;20228;-32
2023/10/09 01:42:45;;;;;;;11.00;7.40;;;18.40;63.00;;;;;;5004493;28;20298;-33
2023/10/09 01:47:51;;;;;;;9.73;7.43;;;18.50;63.10;;;;;;5018854;28;20225;-33
2023/10/09 01:50:22;;;;;;;13.65;7.65;;;18.50;63.10;;;;;;5016000;28;20736;-32
2023/10/09 01:52:51;;;;;;;13.40;8.43;;;18.40;63.10;;;;;;5024294;28;20925;-32
2023/10/09 01:55:29;;;;;;;13.23;7.78;;;18.40;63.10;;;;;;5015229;28;20653;-32
2023/10/09 01:58:05;;;;;;;13.68;8.25;;;18.40;63.20;;;;;;5006676;28;20201;-33
2023/10/09 02:00:41;;;;;;;9.45;7.28;;;18.40;63.20;;;;;;5010752;28;20209;-32
2023/10/09 02:03:23;;;;;;;11.95;7.78;;;18.40;63.20;;;;;;5013336;28;20262;-33
2023/10/09 02:05:53;;;;;;;9.77;6.85;;;18.40;63.20;;;;;;5024935;28;20678;-32
2023/10/09 02:08:35;;;;;;;9.65;6.80;;;18.40;63.20;;;;;;5025682;28;20239;-33
2023/10/09 02:11:03;;;;;;;13.30;7.88;;;18.40;63.20;;;;;;5022902;28;20225;-33
2023/10/09 02:13:34;;;;;;;11.38;7.32;;;18.40;63.30;;;;;;5011390;28;20201;-33
2023/10/09 02:18:56;;;;;;;11.70;7.53;;;18.40;63.40;;;;;;5011455;28;20209;-33
2023/10/09 02:21:29;;;;;;;10.00;7.65;;;18.40;63.40;;;;;;5015716;28;20217;-33
2023/10/09 02:23:57;;;;;;;13.20;7.32;;;18.40;63.40;;;;;;5020905;28;20280;-32
2023/10/09 02:26:32;;;;;;;9.27;7.07;;;18.40;63.40;;;;;;5013003;28;20205;-32
2023/10/09 02:29:04;;;;;;;11.50;7.55;;;18.40;63.40;;;;;;5009722;28;20229;-32
2023/10/09 02:31:40;;;;;;;12.95;7.40;;;18.40;63.50;;;;;;5022361;28;20244;-33
2023/10/09 02:34:11;;;;;;;11.15;7.25;;;18.40;63.50;;;;;;5017422;28;20295;-33
2023/10/09 02:36:49;;;;;;;12.40;7.57;;;18.40;63.50;;;;;;5030371;28;20201;-33
2023/10/09 02:39:23;;;;;;;12.07;7.88;;;18.40;64.30;;;;;;5027245;28;20231;-32
2023/10/09 02:41:55;;;;;;;11.43;7.22;;;18.40;63.60;;;;;;5023413;28;20201;-33
2023/10/09 02:44:30;;;;;;;12.43;7.72;;;18.30;63.50;;;;;;5028512;28;20208;-33
2023/10/09 02:46:58;;;;;;;11.52;7.97;;;18.40;63.60;;;;;;5028369;28;20201;-33
2023/10/09 02:49:27;;;;;;;12.30;7.88;;;18.40;63.60;;;;;;5025814;28;21798;-32
2023/10/09 02:51:54;;;;;;;14.10;7.85;;;18.40;63.70;;;;;;5023023;28;20790;-32
2023/10/09 02:59:25;;;;;;;10.93;7.80;;;18.30;63.60;;;;;;5023734;28;20206;-33
2023/10/09 03:01:52;;;;;;;9.98;7.72;;;18.30;63.60;;;;;;5005398;28;20741;-33
2023/10/09 03:04:23;;;;;;;11.23;6.95;;;18.30;63.70;;;;;;5017616;28;20461;-33
2023/10/09 03:06:51;;;;;;;10.45;6.82;;;18.30;63.70;;;;;;5006890;28;20548;-32
2023/10/09 03:09:27;;;;;;;10.85;7.43;;;18.30;63.70;;;;;;5005962;28;20686;-33
2023/10/09 03:12:05;;;;;;;14.35;7.20;;;18.30;63.70;;;;;;5007038;28;20572;-34
2023/10/09 03:14:38;;;;;;;11.93;7.47;;;18.30;63.70;;;;;;5014299;28;20597;-33
2023/10/09 03:17:13;;;;;;;16.88;8.40;;;18.30;63.70;;;;;;5005494;28;20236;-33
2023/10/09 03:19:43;;;;;;;11.10;8.10;;;18.30;63.80;;;;;;5004871;28;20737;-33
2023/10/09 03:22:11;;;;;;;13.80;8.00;;;18.30;63.80;;;;;;5036804;28;20215;-33
2023/10/09 03:24:44;;;;;;;13.00;7.85;;;18.30;63.80;;;;;;5014993;28;20288;-33
2023/10/09 03:27:21;;;;;;;10.05;7.10;;;18.30;63.80;;;;;;5004197;28;20694;-32
2023/10/09 03:29:53;;;;;;;11.95;7.78;;;18.30;63.80;;;;;;5006047;28;20206;-32
2023/10/09 03:32:21;;;;;;;11.95;7.88;;;18.30;63.90;;;;;;5012106;28;20324;-33
2023/10/09 03:34:51;;;;;;;12.70;7.43;;;18.20;63.80;;;;;;5007775;28;20272;-32
2023/10/09 03:37:34;;;;;;;12.20;8.10;;;18.20;63.80;;;;;;5006257;28;20275;-33
2023/10/09 03:40:06;;;;;;;11.82;8.00;;;18.20;63.90;;;;;;5026993;28;20201;-33
2023/10/09 03:42:36;;;;;;;13.30;7.53;;;18.20;63.90;;;;;;5009071;28;20218;-33
2023/10/09 03:45:18;;;;;;;11.87;7.53;;;18.20;63.90;;;;;;5014382;28;20237;-32
2023/10/09 03:47:48;;;;;;;11.98;8.23;;;18.20;63.90;;;;;;5019621;28;20221;-32
2023/10/09 03:50:26;;;;;;;10.85;7.70;;;18.20;63.90;;;;;;5008587;28;20226;-33
2023/10/09 03:52:54;;;;;;;11.52;7.60;;;18.20;63.90;;;;;;5011334;28;20196;-33
2023/10/09 03:55:27;;;;;;;10.30;7.35;;;18.20;64.00;;;;;;5021563;28;20651;-33
2023/10/09 03:58:00;;;;;;;10.93;7.63;;;18.20;63.90;;;;;;5007457;28;20213;-32
2023/10/09 04:00:34;;;;;;;12.88;7.00;;;18.20;63.90;;;;;;4972624;28;1130657;-32
2023/10/09 04:03:04;;;;;;;10.20;6.88;;;18.20;64.00;;;;;;5014188;28;20935;-33
2023/10/09 04:05:34;;;;;;;14.25;7.93;;;18.20;64.00;;;;;;5024496;28;20308;-33
2023/10/09 04:08:12;;;;;;;11.40;7.78;;;18.20;64.10;;;;;;5006772;28;20217;-33
2023/10/09 04:10:51;;;;;;;11.02;7.85;;;18.20;64.10;;;;;;5006641;28;20248;-33
2023/10/09 04:13:23;;;;;;;10.18;7.80;;;18.20;64.10;;;;;;5007141;28;20564;-33
2023/10/09 04:15:53;;;;;;;9.07;7.53;;;18.10;64.00;;;;;;5022334;28;20212;-33
2023/10/09 04:18:32;;;;;;;11.93;7.47;;;18.10;64.00;;;;;;5006975;28;20571;-33
2023/10/09 04:21:16;;;;;;;11.73;7.75;;;18.10;64.00;;;;;;5005254;28;20514;-33
2023/10/09 04:26:29;;;;;;;14.32;8.45;;;18.10;64.10;;;;;;5019676;28;20208;-33
2023/10/09 04:28:58;;;;;;;13.90;8.55;;;18.10;64.20;;;;;;5009261;28;20217;-33
2023/10/09 04:31:31;;;;;;;14.02;8.30;;;18.10;64.20;;;;;;5009658;28;20211;-32
2023/10/09 04:34:22;;;;;;;14.27;8.00;;;18.10;64.20;;;;;;5011856;28;20284;-33
2023/10/09 04:37:01;;;;;;;10.90;7.75;;;18.10;64.20;;;;;;5009788;28;20196;-33
2023/10/09 04:42:58;;;;;;;11.77;7.10;;;18.10;64.30;;;;;;5005173;28;20606;-32
2023/10/09 04:47:36;;;;;;;12.65;8.40;;;18.10;64.30;;;;;;5007000;28;20210;-33
2023/10/09 05:03:25;;;;;;;19.52;8.57;;;18.10;64.40;;;;;;5008155;28;20574;-32
2023/10/09 05:05:58;;;;;;;13.57;8.50;;;18.10;64.40;;;;;;5008200;28;20608;-32
2023/10/09 05:16:26;;;;;;;13.30;8.77;;;18.10;64.50;;;;;;5015685;28;20722;-32
2023/10/09 05:19:06;;;;;;;15.00;8.15;;;18.10;64.40;;;;;;5027507;28;20226;-32
2023/10/09 05:37:33;;;;;;;16.30;8.45;;;18.10;64.50;;;;;;5019183;28;20213;-32
2023/10/09 05:42:57;;;;;;;14.25;8.80;;;18.10;64.60;;;;;;5012034;28;20620;-33
2023/10/09 05:46:07;;;;;;;13.27;9.10;;;18.10;64.60;;;;;;5020275;28;20208;-32
2023/10/09 06:04:19;;;;;;;26.13;10.25;;;18.10;64.70;;;;;;5008054;28;20577;-32
2023/10/09 06:06:56;;;;;;;27.42;9.88;;;18.00;64.70;;;;;;5007352;28;20923;-32
2023/10/09 06:09:49;;;;;;;28.08;9.10;;;18.00;64.70;;;;;;5021144;28;20225;-32
2023/10/09 06:15:32;;;;;;;14.38;9.20;;;18.00;64.80;;;;;;5008493;28;20683;-32
2023/10/09 06:18:25;;;;;;;27.80;11.20;;;18.00;64.80;;;;;;5008558;28;20659;-32
2023/10/09 06:21:19;;;;;;;24.00;9.63;;;18.00;64.80;;;;;;5018114;28;20217;-32
2023/10/09 06:26:33;;;;;;;22.27;9.60;;;18.00;64.80;;;;;;5003456;28;20698;-33
2023/10/09 06:29:35;;;;;;;28.17;10.65;;;18.00;64.80;;;;;;5017659;28;20710;-32
2023/10/09 06:32:05;;;;;;;23.63;10.60;;;18.00;64.90;;;;;;5005489;28;20631;-32
2023/10/09 06:34:32;;;;;;;19.92;9.40;;;18.00;64.90;;;;;;5010335;28;20224;-32
2023/10/09 06:37:34;;;;;;;16.30;9.30;;;18.00;64.90;;;;;;5013203;28;20216;-32
2023/10/09 06:42:33;;;;;;;19.80;9.48;;;18.10;65.00;;;;;;5008902;28;20241;-33
2023/10/09 06:45:11;;;;;;;15.90;9.48;;;18.10;65.10;;;;;;5006278;28;20232;-32
2023/10/09 06:47:42;;;;;;;14.15;8.95;;;18.10;65.10;;;;;;5020784;28;20209;-32
2023/10/09 06:55:51;;;;;;;18.20;9.80;;;18.10;65.00;;;;;;5014720;28;20685;-32
2023/10/09 06:58:23;;;;;;;24.40;10.17;;;18.10;65.10;;;;;;5027319;28;20247;-32
2023/10/09 07:03:35;;;;;;;16.25;9.50;;;18.20;65.40;;;;;;5019636;28;20295;-32
2023/10/09 07:06:09;;;;;;;34.47;10.75;;;18.20;65.20;;;;;;5026277;28;20220;-32
2023/10/09 07:08:57;;;;;;;24.30;9.93;;;18.20;65.20;;;;;;5025714;28;20228;-32
2023/10/09 07:17:15;;;;;;;19.23;9.93;;;18.20;65.30;;;;;;5016624;28;20205;-32
2023/10/09 07:25:13;;;;;;;13.55;8.70;;;18.30;65.40;;;;;;5011399;28;20316;-33
2023/10/09 07:27:43;;;;;;;17.65;9.07;;;18.30;65.40;;;;;;5010724;28;20202;-32
2023/10/09 07:38:28;;;;;;;18.85;9.98;;;18.40;65.40;;;;;;5027756;28;20208;-32
2023/10/09 07:46:32;;;;;;;21.20;10.07;;;18.50;65.50;;;;;;5010320;28;20296;-30
2023/10/09 07:49:12;;;;;;;14.10;9.60;;;18.50;65.50;;;;;;5010296;28;20217;-30
2023/10/09 07:51:43;;;;;;;18.65;9.95;;;18.50;65.50;;;;;;5012838;28;20236;-29
2023/10/09 07:54:31;;;;;;;12.63;8.98;;;18.60;65.60;;;;;;5019374;28;20206;-29
2023/10/09 07:57:08;;;;;;;17.45;9.40;;;18.60;65.60;;;;;;5029534;28;20678;-30
2023/10/09 07:59:40;;;;;;;18.42;9.40;;;18.60;65.60;;;;;;5028093;28;20262;-30
2023/10/09 08:02:13;;;;;;;15.02;9.23;;;18.70;65.70;;;;;;5029225;28;20241;-30
2023/10/09 08:04:53;;;;;;;16.60;9.80;;;18.70;65.70;;;;;;5025565;28;20212;-30
2023/10/09 08:07:34;;;;;;;13.30;9.55;;;18.80;65.80;;;;;;5007412;28;20228;-29
2023/10/09 08:17:53;;;;;;;29.55;10.70;;;18.90;65.70;;;;;;5009384;28;20218;-29
2023/10/09 08:20:36;;;;;;;21.15;9.80;;;19.00;65.80;;;;;;5007704;28;20233;-29
2023/10/09 08:23:22;;;;;;;16.77;9.82;;;19.00;65.70;;;;;;5009250;28;20197;-30
2023/10/09 08:26:12;;;;;;;19.52;9.45;;;19.10;65.70;;;;;;5018936;28;20260;-30
2023/10/09 08:28:42;;;;;;;18.17;9.15;;;19.10;65.70;;;;;;5006400;28;20671;-30
2023/10/09 08:33:58;;;;;;;16.20;9.88;;;19.20;65.80;;;;;;5009955;28;20784;-30
2023/10/09 08:36:40;;;;;;;20.33;9.77;;;19.20;65.80;;;;;;5018113;28;20324;-31
2023/10/09 08:39:25;;;;;;;15.50;9.20;;;19.30;65.90;;;;;;5024317;28;20203;-31
2023/10/09 08:41:57;;;;;;;21.15;10.18;;;19.30;65.90;;;;;;5005220;28;20186;-30
2023/10/09 08:44:27;;;;;;;20.00;9.52;;;19.40;65.90;;;;;;5019430;28;20231;-30
2023/10/09 08:46:57;;;;;;;17.63;9.02;;;19.40;65.90;;;;;;5013236;28;20307;-30
2023/10/09 08:49:33;;;;;;;17.17;9.25;;;19.50;66.00;;;;;;5013864;28;20734;-33
2023/10/09 08:52:03;;;;;;;17.65;8.63;;;19.50;66.00;;;;;;5008102;28;20642;-33
2023/10/09 08:54:33;;;;;;;15.35;9.85;;;19.60;65.90;;;;;;5008436;28;20676;-33
2023/10/09 08:57:04;;;;;;;18.48;9.65;;;19.60;66.10;;;;;;5017923;28;20208;-33
2023/10/09 08:59:43;;;;;;;15.13;8.98;;;19.70;66.00;;;;;;5020780;28;20216;-33
2023/10/09 09:02:15;;;;;;;17.27;9.73;;;19.70;66.00;;;;;;5019595;28;20271;-33
2023/10/09 09:04:45;;;;;;;15.30;9.65;;;19.80;66.10;;;;;;5008876;28;20202;-33
2023/10/09 09:07:31;;;;;;;23.17;10.48;;;19.80;66.10;;;;;;5013285;28;20217;-33
2023/10/09 09:10:35;;;;;;;18.05;9.85;;;19.90;66.20;;;;;;5022161;28;20216;-33
2023/10/09 09:13:00;;;;;;;31.55;11.18;;;19.90;66.00;;;;;;5020486;28;20214;-33
2023/10/09 09:15:28;;;;;;;24.33;9.90;;;20.00;66.10;;;;;;5008634;28;20193;-33
2023/10/09 09:18:09;;;;;;;23.45;9.75;;;20.10;66.20;;;;;;5012249;28;20852;-33
2023/10/09 09:20:40;;;;;;;15.85;8.82;;;20.10;66.10;;;;;;5021173;28;20225;-33
2023/10/09 09:23:13;;;;;;;14.85;8.90;;;20.20;66.20;;;;;;5026481;28;20201;-33
2023/10/09 09:25:44;;;;;;;22.85;9.27;;;20.20;66.20;;;;;;5025026;28;20745;-29
2023/10/09 09:28:21;;;;;;;16.38;8.95;;;20.30;66.10;;;;;;5024478;28;20303;-31
2023/10/09 09:30:51;;;;;;;17.73;9.63;;;20.30;66.10;;;;;;5008944;28;20307;-31
2023/10/09 09:33:30;;;;;;;20.23;9.85;;;20.40;66.10;;;;;;5008235;28;20579;-29
2023/10/09 09:36:06;;;;;;;24.58;11.13;;;20.40;66.00;;;;;;5008059;28;20245;-30
2023/10/09 09:39:01;;;;;;;23.85;9.65;;;20.50;66.00;;;;;;5007247;28;20667;-29
2023/10/09 09:41:25;;;;;;;17.70;8.93;;;20.50;65.90;;;;;;5009402;28;20205;-30
2023/10/09 09:44:00;;;;;;;17.63;8.52;;;20.50;65.90;;;;;;5007801;28;20280;-29
2023/10/09 09:46:39;;;;;;;30.13;10.30;;;20.60;65.90;;;;;;5008128;28;20200;-29
2023/10/09 09:49:16;;;;;;;17.13;9.57;;;20.60;65.90;;;;;;5013847;28;20224;-29
2023/10/09 09:51:46;;;;;;;18.02;9.32;;;20.70;65.90;;;;;;5014295;28;20671;-29
2023/10/09 09:54:16;;;;;;;15.73;8.20;;;20.70;65.90;;;;;;5008460;28;20208;-29
2023/10/09 09:56:52;;;;;;;14.75;8.88;;;20.80;65.90;;;;;;5007407;28;20210;-31
2023/10/09 09:59:27;;;;;;;18.52;8.25;;;20.80;65.80;;;;;;5008570;28;20217;-29
2023/10/09 10:02:06;;;;;;;21.60;9.48;;;20.90;65.70;;;;;;5011915;28;20247;-29
2023/10/09 10:04:49;;;;;;;17.42;8.45;;;20.90;65.70;;;;;;5008924;28;20218;-29
2023/10/09 10:07:21;;;;;;;18.85;8.63;;;20.90;65.70;;;;;;5011581;28;20213;-30
2023/10/09 10:09:54;;;;;;;13.82;8.10;;;20.90;65.60;;;;;;5022550;28;20802;-29
2023/10/09 10:13:00;;;;;;;14.23;8.32;;;21.00;65.60;;;;;;5006886;28;20252;-29
2023/10/09 10:15:58;;;;;;;16.92;9.35;;;21.00;65.50;;;;;;5017948;28;20221;-30
2023/10/09 10:18:32;;;;;;;26.23;8.95;;;21.10;65.60;;;;;;5006663;28;20198;-29
2023/10/09 10:21:42;;;;;;;22.50;8.85;;;21.10;65.50;;;;;;5015198;28;20205;-29
2023/10/09 10:24:12;;;;;;;19.80;8.57;;;21.10;65.40;;;;;;5007649;28;20304;-29
2023/10/09 10:26:40;;;;;;;16.52;8.35;;;21.20;65.40;;;;;;5012920;28;20213;-29
2023/10/09 10:29:26;;;;;;;10.57;7.63;;;21.20;65.40;;;;;;5019551;28;20574;-31
2023/10/09 10:32:01;;;;;;;11.30;7.50;;;21.30;65.40;;;;;;5019728;28;20431;-30
2023/10/09 10:34:57;;;;;;;11.25;7.57;;;21.30;65.40;;;;;;5017697;28;20192;-29
2023/10/09 10:37:44;;;;;;;14.20;7.75;;;21.40;65.40;;;;;;5018002;28;20553;-30
2023/10/09 10:40:37;;;;;;;14.32;7.93;;;21.40;65.20;;;;;;5008969;28;20208;-30
2023/10/09 10:43:13;;;;;;;13.23;7.78;;;21.40;65.10;;;;;;5018247;28;20206;-30
2023/10/09 10:45:44;;;;;;;14.68;8.50;;;21.50;65.20;;;;;;5011489;28;20214;-30
2023/10/09 10:48:37;;;;;;;12.73;7.47;;;21.50;65.10;;;;;;5022181;28;20221;-30
2023/10/09 10:51:11;;;;;;;17.75;8.43;;;21.50;65.00;;;;;;5013115;28;20225;-31
2023/10/09 10:53:49;;;;;;;16.92;8.02;;;21.60;65.10;;;;;;5011275;28;20202;-29
2023/10/09 10:59:11;;;;;;;17.08;8.18;;;21.60;64.90;;;;;;5040984;28;20212;-28
2023/10/09 11:07:09;;;;;;;21.60;8.55;;;21.70;64.90;;;;;;5007515;28;20883;-33
2023/10/09 11:12:38;;;;;;;16.92;8.32;;;21.80;64.80;;;;;;5026007;28;20262;-32
2023/10/09 11:15:08;;;;;;;17.52;8.13;;;21.80;64.80;;;;;;5029606;28;20217;-32
2023/10/09 11:17:38;;;;;;;12.38;7.65;;;21.90;64.90;;;;;;5025117;28;20215;-32
2023/10/09 11:20:24;;;;;;;14.95;8.10;;;22.00;64.80;;;;;;5017241;28;20682;-32
2023/10/09 11:25:50;;;;;;;15.40;7.50;;;22.00;64.70;;;;;;5035138;28;20589;-32
2023/10/09 11:28:42;;;;;;;18.75;9.43;;;22.00;64.40;;;;;;5017926;28;20289;-34
2023/10/09 11:31:15;;;;;;;14.57;8.48;;;22.10;64.60;;;;;;5009184;28;20606;-34
2023/10/09 11:33:51;;;;;;;15.10;9.15;;;22.10;64.50;;;;;;5029959;28;20209;-34
2023/10/09 11:36:32;;;;;;;13.57;7.85;;;22.10;64.40;;;;;;5010277;28;20204;-35
2023/10/09 11:39:21;;;;;;;14.50;8.57;;;22.10;64.40;;;;;;5021644;28;20202;-34
2023/10/09 11:41:59;;;;;;;17.35;8.70;;;22.10;64.50;;;;;;5009441;28;20323;-35
2023/10/09 11:44:45;;;;;;;18.13;7.97;;;22.20;64.40;;;;;;5013767;28;20200;-35
2023/10/09 11:52:45;;;;;;;14.07;8.40;;;22.30;64.30;;;;;;5015662;28;20202;-35
2023/10/09 11:55:16;;;;;;;14.50;8.70;;;22.30;64.40;;;;;;5009589;28;20189;-33
2023/10/09 11:57:44;;;;;;;26.73;8.60;;;22.30;64.20;;;;;;5013070;28;20260;-32
2023/10/09 12:00:29;;;;;;;21.00;8.98;;;22.40;64.20;;;;;;5008588;28;20208;-33
2023/10/09 12:03:04;;;;;;;16.92;8.98;;;22.40;64.20;;;;;;5010708;28;20672;-33
2023/10/09 12:05:33;;;;;;;17.92;8.50;;;22.40;64.10;;;;;;5028602;28;20205;-33
2023/10/09 12:08:02;;;;;;;13.38;8.40;;;22.40;64.10;;;;;;5007306;28;20202;-33
2023/10/09 12:10:33;;;;;;;16.25;8.05;;;22.50;64.00;;;;;;5009463;28;20237;-33
2023/10/09 12:13:04;;;;;;;13.15;8.40;;;22.50;63.80;;;;;;5010871;28;20201;-33
2023/10/09 12:15:39;;;;;;;10.95;7.57;;;22.50;63.80;;;;;;5028385;28;20339;-33
2023/10/09 12:18:14;;;;;;;13.20;7.80;;;22.60;63.80;;;;;;5029016;28;20200;-33
2023/10/09 12:20:49;;;;;;;14.18;8.32;;;22.60;63.90;;;;;;5015553;28;20315;-33
2023/10/09 12:23:21;;;;;;;18.15;7.88;;;22.60;63.90;;;;;;5008910;28;20193;-33
2023/10/09 12:25:56;;;;;;;14.68;7.63;;;22.70;64.00;;;;;;5009725;28;20527;-33
2023/10/09 12:28:29;;;;;;;11.77;6.95;;;22.70;63.90;;;;;;5018326;28;20208;-33
2023/10/09 12:31:01;;;;;;;12.73;8.18;;;22.80;63.90;;;;;;5008581;28;20232;-33
2023/10/09 12:33:29;;;;;;;14.30;7.35;;;22.80;63.70;;;;;;5012925;28;20216;-33
2023/10/09 12:35:59;;;;;;;13.95;7.05;;;22.80;63.60;;;;;;5015369;28;20755;-33
2023/10/09 12:38:32;;;;;;;9.85;7.00;;;22.80;63.60;;;;;;5014332;28;20220;-35
2023/10/09 12:41:43;;;;;;;11.70;7.32;;;22.80;63.40;;;;;;5022167;28;20201;-33
2023/10/09 12:44:14;;;;;;;16.17;8.35;;;22.80;63.30;;;;;;5016415;28;20216;-33
2023/10/09 12:46:51;;;;;;;13.35;8.23;;;22.80;63.10;;;;;;5008887;28;20667;-32
2023/10/09 12:49:25;;;;;;;13.77;9.30;;;22.80;63.10;;;;;;5025774;28;20204;-35
2023/10/09 12:51:53;;;;;;;16.50;8.73;;;22.80;63.00;;;;;;5024956;28;20189;-33
2023/10/09 12:54:27;;;;;;;16.52;8.82;;;22.80;63.00;;;;;;5023905;28;20636;-33
2023/10/09 12:56:55;;;;;;;12.23;7.70;;;22.80;62.90;;;;;;5014125;28;20709;-33
2023/10/09 12:59:24;;;;;;;19.98;9.23;;;22.80;62.80;;;;;;5029039;28;20276;-31
2023/10/09 13:01:57;;;;;;;16.50;9.27;;;22.90;62.90;;;;;;5017647;28;20729;-31
2023/10/09 13:04:31;;;;;;;15.20;8.52;;;22.80;62.90;;;;;;5007734;28;20592;-31
2023/10/09 13:07:04;;;;;;;15.85;9.40;;;22.90;62.90;;;;;;5013874;28;20282;-31
2023/10/09 13:09:35;;;;;;;13.93;9.02;;;22.90;62.90;;;;;;5009007;28;20207;-31
2023/10/09 13:12:03;;;;;;;13.25;8.55;;;22.90;62.90;;;;;;5021861;28;20217;-31
2023/10/09 13:14:35;;;;;;;15.20;8.40;;;22.90;62.90;;;;;;5008957;28;20241;-30
2023/10/09 13:17:09;;;;;;;14.48;8.70;;;22.90;62.90;;;;;;5013127;28;20228;-32
2023/10/09 13:19:37;;;;;;;15.30;8.80;;;22.90;62.90;;;;;;5019494;28;20201;-30
2023/10/09 13:22:12;;;;;;;16.98;9.38;;;22.90;62.80;;;;;;5015935;28;20689;-30
2023/10/09 13:24:43;;;;;;;12.10;9.00;;;23.00;62.70;;;;;;5014845;28;20248;-30
2023/10/09 13:27:14;;;;;;;13.75;8.70;;;23.00;62.70;;;;;;5015932;28;20228;-30
2023/10/09 13:29:43;;;;;;;13.65;8.55;;;23.00;62.60;;;;;;5011423;28;20255;-30
2023/10/09 13:32:16;;;;;;;16.25;8.60;;;23.00;62.70;;;;;;5016129;28;20196;-30
2023/10/09 13:34:44;;;;;;;13.50;9.57;;;23.00;62.50;;;;;;5007969;28;20201;-30
2023/10/09 13:37:13;;;;;;;15.25;9.00;;;23.00;62.60;;;;;;5016902;28;20190;-30
2023/10/09 13:39:56;;;;;;;15.90;9.90;;;23.00;62.40;;;;;;5013878;28;20217;-30
2023/10/09 13:42:25;;;;;;;15.18;9.45;;;23.00;62.40;;;;;;5007940;28;20219;-30
2023/10/09 13:44:55;;;;;;;15.77;9.80;;;23.10;62.40;;;;;;5017425;28;20205;-30
2023/10/09 13:47:31;;;;;;;16.10;9.80;;;23.10;62.50;;;;;;5014137;28;20208;-30
2023/10/09 13:50:00;;;;;;;18.15;10.75;;;23.10;62.50;;;;;;5018031;28;20693;-32
2023/10/09 13:52:27;;;;;;;17.05;10.18;;;23.10;62.40;;;;;;5013452;28;20206;-30
2023/10/09 13:54:57;;;;;;;16.58;10.63;;;23.10;62.30;;;;;;5009790;28;20328;-30
2023/10/09 13:57:31;;;;;;;15.65;9.80;;;23.10;62.30;;;;;;5010522;28;20288;-30
2023/10/09 14:00:00;;;;;;;19.52;10.40;;;23.10;62.30;;;;;;5017063;28;20239;-30
2023/10/09 14:02:28;;;;;;;22.42;9.95;;;23.10;62.30;;;;;;5010991;28;20331;-30
2023/10/09 14:05:00;;;;;;;14.93;10.07;;;23.20;62.30;;;;;;5017353;28;20292;-30
2023/10/09 14:07:34;;;;;;;15.98;10.32;;;23.20;62.20;;;;;;5015227;28;20299;-30
2023/10/09 14:10:17;;;;;;;16.27;9.70;;;23.20;62.20;;;;;;5009049;28;20199;-30
2023/10/09 14:12:44;;;;;;;19.25;9.90;;;23.20;62.10;;;;;;5016725;28;20220;-30
2023/10/09 14:15:18;;;;;;;14.50;10.77;;;23.20;62.20;;;;;;5025249;28;20220;-30
2023/10/09 14:17:55;;;;;;;16.42;10.35;;;23.20;62.80;;;;;;5011646;28;20240;-30
2023/10/09 14:20:28;;;;;;;15.82;9.90;;;23.20;61.90;;;;;;5013614;28;20572;-30
2023/10/09 14:23:07;;;;;;;15.18;9.48;;;23.20;62.00;;;;;;5022134;28;20212;-30
2023/10/09 14:25:39;;;;;;;19.25;10.32;;;23.20;62.00;;;;;;5011919;28;20284;-30
2023/10/09 14:28:09;;;;;;;21.90;10.48;;;23.20;61.90;;;;;;5020869;28;20679;-30
2023/10/09 14:30:42;;;;;;;17.13;10.10;;;23.20;62.00;;;;;;5017052;28;20214;-30
2023/10/09 14:33:14;;;;;;;19.38;9.68;;;23.20;62.80;;;;;;5016157;28;20296;-30
2023/10/09 14:35:45;;;;;;;17.38;10.18;;;23.20;62.00;;;;;;5023432;28;20189;-30
2023/10/09 14:38:12;;;;;;;15.73;9.88;;;23.20;62.00;;;;;;5024716;28;20213;-30
2023/10/09 14:40:44;;;;;;;19.63;9.27;;;23.20;62.00;;;;;;5010456;28;20241;-30
2023/10/09 14:43:22;;;;;;;20.85;9.95;;;23.30;62.10;;;;;;5026519;28;20225;-30
2023/10/09 14:45:49;;;;;;;15.98;9.60;;;23.30;62.10;;;;;;5010099;28;20731;-30
2023/10/09 14:48:19;;;;;;;15.40;9.30;;;23.30;62.10;;;;;;5013447;28;20201;-30
2023/10/09 14:50:49;;;;;;;18.63;10.60;;;23.30;62.00;;;;;;5017027;28;20229;-30
2023/10/09 14:53:16;;;;;;;16.60;10.65;;;23.30;62.00;;;;;;5017819;28;20193;-30
2023/10/09 14:55:45;;;;;;;16.65;10.65;;;23.40;62.00;;;;;;5012213;28;20288;-30
2023/10/09 14:58:16;;;;;;;15.77;9.63;;;23.40;61.90;;;;;;5010263;28;20223;-30
2023/10/09 15:00:46;;;;;;;17.73;10.25;;;23.40;61.70;;;;;;5026046;28;20312;-31
2023/10/09 15:03:19;;;;;;;13.48;9.57;;;23.40;61.80;;;;;;5021221;28;20245;-30
2023/10/09 15:05:47;;;;;;;15.25;9.80;;;23.40;61.80;;;;;;5016929;28;20691;-31
2023/10/09 15:08:17;;;;;;;14.10;8.90;;;23.40;61.70;;;;;;5015626;28;20216;-31
2023/10/09 15:10:55;;;;;;;13.32;9.52;;;23.40;61.70;;;;;;5021415;28;20256;-31
2023/10/09 15:13:27;;;;;;;14.02;9.30;;;23.40;61.50;;;;;;5009521;28;20745;-30
2023/10/09 15:15:58;;;;;;;16.95;9.18;;;23.40;61.50;;;;;;5007427;28;20202;-31
2023/10/09 15:18:26;;;;;;;20.67;10.10;;;23.40;61.50;;;;;;5007940;28;20501;-30
2023/10/09 15:20:55;;;;;;;18.05;9.02;;;23.40;61.60;;;;;;4996280;28;20206;-30
2023/10/09 15:23:25;;;;;;;14.40;9.60;;;23.40;61.60;;;;;;5036042;28;20208;-31
2023/10/09 15:25:54;;;;;;;14.90;9.43;;;23.40;61.60;;;;;;5013811;28;20300;-31
2023/10/09 15:28:23;;;;;;;15.95;9.60;;;23.40;61.50;;;;;;5010135;28;20668;-30
2023/10/09 15:30:50;;;;;;;17.38;9.43;;;23.40;61.50;;;;;;5023130;28;20312;-31
2023/10/09 15:33:18;;;;;;;16.67;9.45;;;23.40;61.50;;;;;;5009258;28;20209;-31
2023/10/09 15:35:52;;;;;;;18.42;10.40;;;23.40;61.40;;;;;;5014761;28;20205;-30
2023/10/09 15:38:21;;;;;;;15.40;9.77;;;23.40;61.30;;;;;;5016615;28;20217;-30
2023/10/09 15:40:48;;;;;;;20.98;10.80;;;23.40;61.30;;;;;;5018904;28;20219;-30
2023/10/09 15:43:16;;;;;;;14.73;9.30;;;23.40;61.30;;;;;;5023647;28;20220;-30
2023/10/09 15:45:47;;;;;;;12.18;8.85;;;23.40;61.20;;;;;;5026221;28;20204;-31